Time;durP1;ratioP1;P1;durP2;ratioP2;P2;SDS_P1;SDS_P2;PMS_P1;PMS_P2;Temp;Humidity;BMP_temperature;BMP_pressure;BME280_temperature;BME280_humidity;BME280_pressure;Samples;Min_cycle;Max_cycle;Signal;HPM_P1;HPM_P2
2023/09/09 00:02:02;;;;;;;12.43;4.63;;;;;;;14.46;54.97;100826.34;125423;1099;104262;-77
2023/09/09 00:04:33;;;;;;;13.50;4.67;;;;;;;14.44;54.97;100828.03;125430;1099;104181;-77
2023/09/09 00:07:04;;;;;;;12.67;4.60;;;;;;;14.44;54.57;100838.59;125502;1099;104172;-78
2023/09/09 00:09:36;;;;;;;12.37;4.77;;;;;;;14.42;54.59;100831.52;125414;1099;102256;-78
2023/09/09 00:12:08;;;;;;;11.67;4.47;;;;;;;14.40;53.83;100820.91;125467;1099;101942;-78
2023/09/09 00:14:39;;;;;;;15.07;4.93;;;;;;;14.40;54.49;100820.91;125454;1099;110991;-79
2023/09/09 00:17:10;;;;;;;17.37;5.00;;;;;;;14.38;54.30;100818.23;125439;1099;104171;-79
2023/09/09 00:19:41;;;;;;;12.63;4.30;;;;;;;14.35;55.23;100834.00;125463;1099;104267;-79
2023/09/09 00:22:13;;;;;;;11.83;5.00;;;;;;;14.33;55.06;100819.84;125496;1098;104207;-78
2023/09/09 00:24:44;;;;;;;17.17;4.80;;;;;;;14.29;55.30;100828.56;125562;1099;101944;-78
2023/09/09 00:27:15;;;;;;;11.13;5.07;;;;;;;14.25;54.91;100825.80;125504;1099;104144;-78
2023/09/09 00:29:47;;;;;;;12.77;4.23;;;;;;;14.22;55.97;100817.80;125498;1099;102122;-79
2023/09/09 00:32:18;;;;;;;14.43;4.87;;;;;;;14.19;55.38;100816.87;125561;1099;102142;-78
2023/09/09 00:34:49;;;;;;;12.97;4.70;;;;;;;14.19;55.27;100823.87;125623;1099;104060;-79
2023/09/09 00:37:20;;;;;;;12.63;4.60;;;;;;;14.19;55.98;100816.87;125730;1099;104165;-78
2023/09/09 00:39:52;;;;;;;14.77;5.10;;;;;;;14.20;55.14;100810.73;126367;1099;104169;-79
2023/09/09 00:42:23;;;;;;;14.03;4.63;;;;;;;14.20;55.96;100809.84;125535;1096;104169;-78
2023/09/09 00:44:55;;;;;;;12.77;4.90;;;;;;;14.19;55.49;100816.87;125557;1098;104262;-77
2023/09/09 00:47:27;;;;;;;14.80;4.70;;;;;;;14.17;56.14;100812.41;125463;1099;102182;-77
2023/09/09 00:49:59;;;;;;;11.53;4.57;;;;;;;14.15;56.20;100814.13;125499;1099;101923;-78
2023/09/09 00:52:31;;;;;;;14.30;4.60;;;;;;;14.11;56.68;100807.84;125375;1099;104297;-78
2023/09/09 00:55:02;;;;;;;15.07;4.63;;;;;;;14.07;56.58;100803.36;125498;1099;101791;-78
2023/09/09 00:57:34;;;;;;;14.97;5.03;;;;;;;14.05;56.35;100806.80;126374;1098;102014;-79
2023/09/09 01:00:09;;;;;;;12.50;5.20;;;;;;;13.99;56.75;100807.52;125557;1099;102060;-77
2023/09/09 01:02:41;;;;;;;10.80;4.65;;;;;;;13.97;56.25;100796.92;125606;1099;104198;-78
2023/09/09 01:05:13;;;;;;;11.47;4.90;;;;;;;13.96;56.95;100795.16;125523;1099;102141;-79
2023/09/09 01:07:49;;;;;;;12.63;4.87;;;;;;;13.93;56.59;100788.89;126297;1099;104225;-79
2023/09/09 01:10:21;;;;;;;11.20;4.80;;;;;;;13.91;57.28;100788.84;125574;1098;101929;-80
2023/09/09 01:12:52;;;;;;;13.40;4.93;;;;;;;13.88;57.30;100790.52;125514;1099;104063;-80
2023/09/09 01:15:24;;;;;;;15.37;4.97;;;;;;;13.84;56.91;100787.80;125561;1099;102080;-79
2023/09/09 01:17:55;;;;;;;13.17;5.30;;;;;;;13.80;57.46;100785.03;125472;1099;104200;-77
2023/09/09 01:20:28;;;;;;;15.57;5.23;;;;;;;13.76;57.68;100786.71;125475;1098;104245;-78
2023/09/09 01:22:59;;;;;;;14.00;4.90;;;;;;;13.70;58.50;100794.45;125410;1099;101999;-78
2023/09/09 01:25:31;;;;;;;17.67;5.10;;;;;;;13.68;58.28;100784.70;125368;1099;102128;-78
2023/09/09 01:28:02;;;;;;;15.67;4.63;;;;;;;13.62;58.57;100790.72;125522;1099;101907;-79
2023/09/09 01:30:34;;;;;;;9.27;4.30;;;;;;;13.58;58.69;100787.08;125499;1099;102464;-79
2023/09/09 01:33:06;;;;;;;12.83;4.90;;;;;;;13.57;59.08;100792.31;125502;1099;101824;-78
2023/09/09 01:35:37;;;;;;;12.77;4.80;;;;;;;13.54;58.88;100787.87;125427;1098;104230;-78
2023/09/09 01:38:08;;;;;;;15.27;4.90;;;;;;;13.51;58.42;100793.05;125411;1099;104274;-77
2023/09/09 01:40:40;;;;;;;14.07;5.00;;;;;;;13.48;59.35;100787.69;125363;1099;101829;-78
2023/09/09 01:43:11;;;;;;;14.60;4.63;;;;;;;13.45;59.44;100790.23;125495;1099;104166;-79
2023/09/09 01:45:43;;;;;;;15.00;4.77;;;;;;;13.43;59.31;100786.64;125476;1099;104274;-79
2023/09/09 01:48:15;;;;;;;13.57;5.23;;;;;;;13.39;59.92;100780.41;126510;1098;101964;-79
2023/09/09 01:50:47;;;;;;;12.53;5.20;;;;;;;13.37;60.36;100783.83;125473;1099;104285;-79
2023/09/09 01:53:19;;;;;;;14.03;4.87;;;;;;;13.34;60.22;100775.83;126386;1098;101940;-78
2023/09/09 01:55:50;;;;;;;12.23;4.90;;;;;;;13.33;60.17;100772.31;125375;1099;104264;-78
2023/09/09 01:58:22;;;;;;;11.10;4.20;;;;;;;13.33;60.07;100776.67;125415;1099;101888;-80
2023/09/09 02:00:53;;;;;;;14.90;5.13;;;;;;;13.28;60.42;100772.15;125194;1099;104234;-78
2023/09/09 02:03:25;;;;;;;12.67;5.23;;;;;;;13.27;60.22;100775.63;125514;1099;104229;-77
2023/09/09 02:05:59;;;;;;;12.33;5.20;;;;;;;13.24;60.70;100772.89;125413;1099;101991;-79
2023/09/09 02:08:30;;;;;;;14.00;5.00;;;;;;;13.20;60.63;100773.67;125530;1099;102081;-78
2023/09/09 02:11:02;;;;;;;14.10;4.90;;;;;;;13.19;60.93;100779.78;125605;1099;104173;-78
2023/09/09 02:13:33;;;;;;;14.33;4.63;;;;;;;13.17;60.93;100770.06;125519;1099;102085;-79
2023/09/09 02:16:08;;;;;;;14.50;5.30;;;;;;;13.15;60.91;100777.93;125508;1098;101979;-79
2023/09/09 02:18:40;;;;;;;12.43;4.90;;;;;;;13.15;60.78;100766.47;125478;1098;102026;-77
2023/09/09 02:21:11;;;;;;;15.13;5.27;;;;;;;13.14;61.06;100770.86;125432;1099;102113;-78
2023/09/09 02:23:43;;;;;;;12.10;4.60;;;;;;;13.14;60.60;100768.23;125493;1099;104245;-79
2023/09/09 02:26:14;;;;;;;10.80;4.85;;;;;;;13.15;60.53;100764.75;125584;1099;104271;-79
2023/09/09 02:28:49;;;;;;;12.53;5.00;;;;;;;13.15;60.17;100761.20;125550;1099;102935;-79
2023/09/09 02:31:20;;;;;;;14.23;5.05;;;;;;;13.15;60.19;100769.11;125607;1099;101817;-79
2023/09/09 02:33:52;;;;;;;9.87;4.77;;;;;;;13.14;60.47;100755.05;125577;1099;104185;-78
2023/09/09 02:36:23;;;;;;;14.83;4.90;;;;;;;13.13;60.58;100763.80;125032;1098;104278;-78
2023/09/09 02:38:55;;;;;;;11.97;5.07;;;;;;;13.08;60.98;100763.66;124781;1099;104198;-78
2023/09/09 02:41:27;;;;;;;16.87;5.00;;;;;;;13.05;60.73;100771.47;124756;1099;104086;-78
2023/09/09 02:43:58;;;;;;;17.13;4.73;;;;;;;13.00;61.08;100767.81;125348;1096;104192;-78
2023/09/09 02:46:29;;;;;;;10.67;5.03;;;;;;;12.99;61.10;100759.86;124932;1099;104226;-77
2023/09/09 02:49:01;;;;;;;12.63;5.17;;;;;;;12.97;61.13;100754.55;125429;1099;102409;-78
2023/09/09 02:51:32;;;;;;;14.40;4.80;;;;;;;12.97;60.99;100757.19;125317;1099;104245;-78
2023/09/09 02:54:03;;;;;;;11.07;4.93;;;;;;;12.97;60.95;100751.91;125401;1099;102208;-79
2023/09/09 02:56:35;;;;;;;9.83;4.27;;;;;;;12.98;60.70;100756.34;125118;1099;101842;-77
2023/09/09 02:59:06;;;;;;;12.40;4.67;;;;;;;13.00;60.53;100753.77;125128;1099;104251;-78
2023/09/09 03:01:38;;;;;;;13.27;4.90;;;;;;;13.01;61.12;100756.44;124738;1099;104220;-77
2023/09/09 03:04:09;;;;;;;17.93;4.87;;;;;;;13.01;61.45;100751.17;124793;1099;104236;-78
2023/09/09 03:06:40;;;;;;;11.87;4.37;;;;;;;13.02;61.28;100749.42;125310;1099;104211;-77
2023/09/09 03:09:13;;;;;;;10.73;4.40;;;;;;;13.01;61.54;100750.26;124863;1099;101912;-78
2023/09/09 03:11:44;;;;;;;11.37;5.00;;;;;;;12.99;61.55;100747.58;125441;1099;101935;-78
2023/09/09 03:14:15;;;;;;;10.67;4.23;;;;;;;13.00;61.25;100743.22;125509;1098;101781;-79
2023/09/09 03:16:47;;;;;;;13.10;4.20;;;;;;;13.02;61.52;100744.15;125361;1099;101929;-79
2023/09/09 03:19:18;;;;;;;11.87;4.63;;;;;;;13.03;61.09;100751.22;124761;1102;104115;-78
2023/09/09 03:21:50;;;;;;;11.60;4.60;;;;;;;13.02;61.46;100744.15;125210;1099;104166;-78
2023/09/09 03:24:21;;;;;;;11.33;4.83;;;;;;;12.98;61.88;100744.89;124911;1099;102147;-78
2023/09/09 03:26:52;;;;;;;13.53;4.67;;;;;;;12.95;61.69;100748.36;125295;1099;102033;-77
2023/09/09 03:29:24;;;;;;;10.97;4.70;;;;;;;12.91;61.61;100747.34;125382;1099;104276;-78
2023/09/09 03:31:56;;;;;;;15.10;4.90;;;;;;;12.88;62.38;100749.00;125499;1099;104171;-78
2023/09/09 03:34:27;;;;;;;10.20;4.80;;;;;;;12.85;61.89;100752.42;125436;1099;102005;-78
2023/09/09 03:36:59;;;;;;;16.73;5.47;;;;;;;12.82;62.51;100751.45;125386;1099;104210;-77
2023/09/09 03:39:30;;;;;;;13.50;5.25;;;;;;;12.79;62.54;100751.35;125482;1099;101913;-79
2023/09/09 03:42:01;;;;;;;17.63;5.27;;;;;;;12.76;62.49;100749.51;126228;1099;104265;-80
2023/09/09 03:44:33;;;;;;;15.03;4.90;;;;;;;12.74;62.35;100745.95;125534;1099;101925;-79
2023/09/09 03:47:04;;;;;;;12.83;4.67;;;;;;;12.73;62.58;100752.05;125691;1098;104166;-79
2023/09/09 03:49:36;;;;;;;16.27;5.20;;;;;;;12.73;62.74;100742.43;125598;1098;102217;-79
2023/09/09 03:52:08;;;;;;;12.67;5.33;;;;;;;12.73;63.16;100746.78;125676;1099;102051;-79
2023/09/09 03:54:39;;;;;;;14.00;4.80;;;;;;;12.73;62.99;100736.25;125622;1099;101923;-79
2023/09/09 03:57:11;;;;;;;16.63;5.17;;;;;;;12.73;63.49;100739.80;125386;1099;102616;-80
2023/09/09 03:59:42;;;;;;;11.47;4.83;;;;;;;12.76;63.22;100744.24;125332;1099;104221;-78
2023/09/09 04:02:14;;;;;;;12.20;4.87;;;;;;;12.79;63.18;100725.91;125239;1099;104169;-79
2023/09/09 04:04:45;;;;;;;15.20;5.50;;;;;;;12.81;63.43;100734.77;125336;1099;101998;-80
2023/09/09 04:07:17;;;;;;;12.67;4.60;;;;;;;12.82;63.17;100728.63;125454;1099;101965;-78
2023/09/09 04:09:48;;;;;;;11.23;4.80;;;;;;;12.84;63.14;100724.33;125516;1099;104063;-79
2023/09/09 04:12:20;;;;;;;12.30;4.93;;;;;;;12.89;62.85;100727.09;125499;1099;104223;-79
2023/09/09 04:14:51;;;;;;;15.13;4.97;;;;;;;12.91;63.36;100725.39;125537;1099;104235;-78
2023/09/09 04:17:23;;;;;;;13.10;5.17;;;;;;;12.94;63.09;100730.75;125496;1099;102080;-79
2023/09/09 04:19:54;;;;;;;12.30;5.03;;;;;;;12.97;63.29;100719.42;125576;1099;101960;-78
2023/09/09 04:22:28;;;;;;;10.83;4.57;;;;;;;13.01;63.36;100724.83;124909;1102;104329;-77
2023/09/09 04:24:59;;;;;;;11.60;5.20;;;;;;;13.03;62.66;100731.03;124875;1098;104297;-80
2023/09/09 04:27:31;;;;;;;13.50;4.90;;;;;;;13.06;63.17;100720.58;124847;1099;101871;-79
2023/09/09 04:30:03;;;;;;;16.07;5.50;;;;;;;13.09;63.30;100730.33;125550;1099;104214;-79
2023/09/09 04:32:34;;;;;;;13.20;5.20;;;;;;;13.09;63.38;100725.05;125443;1099;102027;-78
2023/09/09 04:35:08;;;;;;;14.20;5.67;;;;;;;13.11;62.88;100725.98;125299;1099;104428;-77
2023/09/09 04:37:39;;;;;;;12.27;5.40;;;;;;;13.13;63.25;100713.73;125534;1099;104258;-78
2023/09/09 04:40:14;;;;;;;15.30;6.00;;;;;;;13.16;62.96;100721.73;125305;1099;101949;-78
2023/09/09 04:42:46;;;;;;;10.07;4.97;;;;;;;13.21;63.35;100720.11;125053;1099;102178;-79
2023/09/09 04:45:17;;;;;;;15.83;5.30;;;;;;;13.24;63.37;100727.22;125163;1099;101968;-78
2023/09/09 04:47:49;;;;;;;13.03;4.87;;;;;;;13.28;63.01;100721.20;124975;1099;104334;-78
2023/09/09 04:50:21;;;;;;;18.27;5.27;;;;;;;13.34;63.38;100716.13;125327;1099;104172;-78
2023/09/09 04:52:52;;;;;;;12.77;5.10;;;;;;;13.38;63.21;100714.47;125548;1099;104185;-77
2023/09/09 04:55:24;;;;;;;12.40;5.17;;;;;;;13.43;63.06;100715.47;125701;1099;101811;-78
2023/09/09 04:57:55;;;;;;;15.33;5.40;;;;;;;13.47;63.21;100714.72;125637;1099;104076;-78
2023/09/09 05:00:27;;;;;;;13.33;4.90;;;;;;;13.54;63.41;100711.41;124939;1099;107176;-79
2023/09/09 05:02:58;;;;;;;13.00;4.90;;;;;;;13.62;63.24;100707.22;125501;1099;104226;-79
2023/09/09 05:05:30;;;;;;;12.03;4.50;;;;;;;13.72;63.05;100710.98;125513;1099;104175;-78
2023/09/09 05:08:01;;;;;;;15.17;4.90;;;;;;;13.78;62.46;100711.15;125274;1099;104238;-78
2023/09/09 05:10:34;;;;;;;12.75;5.10;;;;;;;13.86;62.07;100705.19;125326;1099;118422;-79
2023/09/09 05:13:06;;;;;;;16.03;5.57;;;;;;;13.93;62.72;100707.11;125508;1099;104230;-79
2023/09/09 05:15:38;;;;;;;13.63;4.87;;;;;;;13.99;62.30;100713.45;125425;1099;101778;-77
2023/09/09 05:18:09;;;;;;;12.53;5.17;;;;;;;14.06;62.78;100713.61;125366;1099;104217;-78
2023/09/09 05:20:40;;;;;;;12.33;4.57;;;;;;;14.12;62.13;100705.84;125144;1099;102179;-78
2023/09/09 05:23:12;;;;;;;14.50;4.53;;;;;;;14.18;62.04;100711.28;125528;1099;104176;-83
2023/09/09 05:25:43;;;;;;;13.03;4.77;;;;;;;14.26;61.88;100712.34;125285;1099;101926;-78
2023/09/09 05:28:14;;;;;;;15.57;5.27;;;;;;;14.35;62.38;100707.28;124842;1099;102086;-78
2023/09/09 05:30:45;;;;;;;15.33;5.00;;;;;;;14.45;61.84;100710.14;125451;1099;104238;-78
2023/09/09 05:33:17;;;;;;;15.57;4.70;;;;;;;14.55;61.96;100710.39;125576;1099;102013;-78
2023/09/09 05:35:52;;;;;;;13.10;5.00;;;;;;;14.64;61.41;100693.88;125563;1099;104320;-77
2023/09/09 05:38:25;;;;;;;12.25;4.65;;;;;;;14.74;61.04;100706.44;125435;1099;104248;-78
2023/09/09 05:40:57;;;;;;;13.90;4.87;;;;;;;14.84;60.77;100704.00;125437;1099;101942;-78
2023/09/09 05:43:28;;;;;;;11.80;4.50;;;;;;;14.95;60.80;100707.75;125148;1098;102037;-78
2023/09/09 05:46:01;;;;;;;10.57;4.73;;;;;;;15.06;61.45;100703.57;125495;1099;101988;-78
2023/09/09 05:48:33;;;;;;;11.87;4.47;;;;;;;15.14;61.50;100697.56;125452;1099;104198;-80
2023/09/09 05:51:06;;;;;;;14.57;4.60;;;;;;;15.23;60.69;100697.75;125173;1099;102083;-77
2023/09/09 05:53:38;;;;;;;12.25;4.62;;;;;;;15.34;60.59;100704.13;125337;1099;104286;-78
2023/09/09 05:56:09;;;;;;;11.30;4.67;;;;;;;15.45;60.88;100699.05;125223;1099;101932;-78
2023/09/09 05:58:40;;;;;;;10.20;4.53;;;;;;;15.56;60.42;100709.83;125263;1099;101772;-79
2023/09/09 06:01:12;;;;;;;15.73;4.90;;;;;;;15.68;59.89;100710.06;125249;1098;102306;-80
2023/09/09 06:03:43;;;;;;;10.60;4.23;;;;;;;15.79;59.40;100707.64;124699;1099;104358;-78
2023/09/09 06:06:15;;;;;;;14.27;4.57;;;;;;;15.90;58.91;100708.71;124677;1099;101893;-79
2023/09/09 06:08:47;;;;;;;12.63;4.27;;;;;;;16.02;59.02;100708.05;125390;1099;104182;-80
2023/09/09 06:11:18;;;;;;;15.07;4.80;;;;;;;16.10;58.84;100711.70;124848;1099;104285;-79
2023/09/09 06:13:50;;;;;;;9.40;4.00;;;;;;;16.20;58.99;100709.20;125341;1099;102233;-79
2023/09/09 06:16:21;;;;;;;13.47;4.00;;;;;;;16.32;58.61;100719.98;125356;1098;104182;-79
2023/09/09 06:18:52;;;;;;;10.27;4.10;;;;;;;16.46;58.66;100723.73;125480;1099;102009;-81
2023/09/09 06:21:24;;;;;;;13.00;4.07;;;;;;;16.62;57.51;100726.61;124893;1099;101891;-80
2023/09/09 06:23:55;;;;;;;7.17;3.80;;;;;;;16.78;57.72;100725.98;125496;1099;101884;-82
2023/09/09 06:26:31;;;;;;;10.73;3.80;;;;;;;16.93;57.33;100724.43;125231;1099;102034;-78
2023/09/09 06:29:03;;;;;;;11.87;4.10;;;;;;;17.07;57.42;100726.38;125006;1099;102093;-80
2023/09/09 06:31:35;;;;;;;13.07;4.10;;;;;;;17.22;57.92;100724.80;125418;1099;104677;-78
2023/09/09 06:34:07;;;;;;;12.73;4.50;;;;;;;17.37;57.26;100729.38;125293;1096;101894;-78
2023/09/09 06:36:39;;;;;;;14.30;4.37;;;;;;;17.51;57.52;100719.80;125492;1099;101844;-77
2023/09/09 06:39:10;;;;;;;10.23;4.63;;;;;;;17.66;57.31;100726.17;125549;1099;104262;-78
2023/09/09 06:41:41;;;;;;;13.73;4.40;;;;;;;17.81;57.70;100726.33;125380;1098;102019;-80
2023/09/09 06:44:13;;;;;;;16.37;5.03;;;;;;;17.98;57.32;100726.48;125570;1099;102114;-78
2023/09/09 06:46:44;;;;;;;14.40;4.70;;;;;;;18.14;56.84;100728.41;126283;1098;104242;-79
2023/09/09 06:49:15;;;;;;;11.80;4.87;;;;;;;18.29;56.92;100727.66;125858;1098;102013;-78
2023/09/09 06:51:47;;;;;;;9.80;4.80;;;;;;;18.47;56.77;100729.54;126595;1098;102048;-78
2023/09/09 06:54:19;;;;;;;13.07;5.10;;;;;;;18.65;56.64;100720.81;126413;1098;104095;-78
2023/09/09 06:56:50;;;;;;;13.87;4.97;;;;;;;18.84;56.53;100719.17;125647;1099;104066;-78
2023/09/09 06:59:21;;;;;;;13.47;5.33;;;;;;;19.04;56.37;100727.25;125545;1099;104175;-77
2023/09/09 07:01:53;;;;;;;15.23;5.03;;;;;;;19.29;55.84;100730.02;125558;1099;101984;-79
2023/09/09 07:04:24;;;;;;;14.93;5.20;;;;;;;19.53;55.77;100731.84;125567;1099;103038;-79
2023/09/09 07:06:55;;;;;;;9.20;4.70;;;;;;;19.78;55.72;100731.05;125749;1099;102036;-79
2023/09/09 07:09:27;;;;;;;13.47;5.40;;;;;;;19.93;55.06;100739.06;125929;1099;102377;-79
2023/09/09 07:12:00;;;;;;;16.67;5.30;;;;;;;20.16;55.53;100731.06;126970;1099;102121;-79
2023/09/09 07:14:31;;;;;;;13.35;5.05;;;;;;;20.42;55.31;100733.71;125055;1099;101917;-79
2023/09/09 07:17:03;;;;;;;15.40;5.30;;;;;;;20.65;54.84;100740.84;126554;1099;101984;-78
2023/09/09 07:19:34;;;;;;;14.00;5.57;;;;;;;20.88;53.33;100734.54;125435;1099;104285;-79
2023/09/09 07:22:06;;;;;;;9.90;4.70;;;;;;;21.07;53.90;100733.59;125461;1099;104737;-78
2023/09/09 07:24:37;;;;;;;12.27;5.27;;;;;;;21.27;52.49;100730.84;125338;1099;104310;-78
2023/09/09 07:27:09;;;;;;;12.43;5.43;;;;;;;21.45;52.40;100735.19;125472;1099;104217;-78
2023/09/09 07:29:40;;;;;;;15.57;5.87;;;;;;;21.65;52.61;100728.89;125505;1099;101944;-78
2023/09/09 07:32:11;;;;;;;10.80;4.80;;;;;;;21.82;51.82;100729.66;125067;1098;101865;-77
2023/09/09 07:34:43;;;;;;;14.83;5.40;;;;;;;21.98;51.67;100730.42;125200;1099;104166;-77
2023/09/09 07:37:14;;;;;;;12.53;5.70;;;;;;;22.15;51.77;100729.42;126450;1098;104297;-77
2023/09/09 07:39:50;;;;;;;12.73;5.27;;;;;;;22.27;51.47;100726.64;125011;1098;102048;-77
2023/09/09 07:42:22;;;;;;;11.33;5.20;;;;;;;22.39;51.49;100728.33;125234;1099;102032;-77
2023/09/09 07:44:53;;;;;;;12.97;5.03;;;;;;;22.52;50.76;100732.67;125330;1099;104224;-79
2023/09/09 07:47:24;;;;;;;12.13;4.80;;;;;;;22.61;50.55;100740.60;125664;1098;104162;-78
2023/09/09 07:49:56;;;;;;;12.33;5.07;;;;;;;22.50;50.66;100739.83;125447;1098;101938;-76
2023/09/09 07:52:28;;;;;;;10.80;5.40;;;;;;;22.47;50.24;100742.53;125341;1099;104166;-79
2023/09/09 07:54:59;;;;;;;12.07;4.60;;;;;;;22.54;50.05;100733.53;125577;1099;104218;-79
2023/09/09 07:57:30;;;;;;;14.83;5.03;;;;;;;22.65;49.37;100728.08;125498;1099;101961;-77
2023/09/09 08:00:04;;;;;;;11.03;4.57;;;;;;;22.77;49.24;100741.32;125544;1099;104169;-78
2023/09/09 08:02:43;;;;;;;9.33;4.40;;;;;;;22.79;48.06;100735.95;125084;1099;104217;-77
2023/09/09 08:05:14;;;;;;;11.20;4.67;;;;;;;22.75;48.08;100731.53;125133;1098;104319;-78
2023/09/09 08:07:45;;;;;;;8.90;3.87;;;;;;;22.78;46.78;100743.11;125184;1099;101929;-78
2023/09/09 08:10:17;;;;;;;9.20;4.17;;;;;;;22.79;46.89;100734.16;124784;1099;102541;-78
2023/09/09 08:12:48;;;;;;;11.80;4.17;;;;;;;22.82;46.69;100735.92;125148;1098;104180;-78
2023/09/09 08:15:21;;;;;;;11.07;4.77;;;;;;;22.83;46.78;100729.68;125164;1099;104185;-78
2023/09/09 08:17:52;;;;;;;9.98;4.30;;;;;;;22.93;47.00;100739.35;125092;1099;104293;-78
2023/09/09 08:20:24;;;;;;;10.07;4.63;;;;;;;23.07;46.21;100735.64;125105;1099;104664;-77
2023/09/09 08:22:55;;;;;;;9.83;4.73;;;;;;;23.18;46.77;100736.42;125199;1099;104406;-78
2023/09/09 08:25:32;;;;;;;13.80;4.60;;;;;;;23.34;45.67;100734.42;124694;1099;104172;-78
2023/09/09 08:28:04;;;;;;;9.87;4.70;;;;;;;23.47;45.38;100728.00;124799;1099;104246;-79
2023/09/09 08:30:36;;;;;;;9.27;3.80;;;;;;;23.56;44.88;100729.68;126058;1098;102089;-80
2023/09/09 08:33:07;;;;;;;11.13;4.50;;;;;;;23.61;45.15;100737.65;124986;1099;104220;-78
2023/09/09 08:35:39;;;;;;;9.47;4.60;;;;;;;23.64;44.50;100727.77;126257;1098;101857;-78
2023/09/09 08:38:10;;;;;;;7.60;4.07;;;;;;;23.74;44.46;100733.86;125337;1099;104657;-78
2023/09/09 08:41:01;;;;;;;10.13;4.63;;;;;;;23.95;43.80;100731.78;125261;1099;102032;-78
2023/09/09 08:43:42;;;;;;;9.33;4.40;;;;;;;24.04;43.21;100728.95;125361;1099;101856;-79
2023/09/09 08:46:16;;;;;;;8.67;3.87;;;;;;;24.04;43.37;100727.19;125709;1099;104195;-79
2023/09/09 08:48:51;;;;;;;11.47;4.10;;;;;;;24.05;43.10;100734.30;125164;1099;102387;-79
2023/09/09 08:51:39;;;;;;;10.67;4.33;;;;;;;24.07;43.42;100723.55;124822;1099;104695;-78
2023/09/09 08:54:18;;;;;;;9.17;4.33;;;;;;;24.10;43.12;100725.30;125564;1099;104239;-80
2023/09/09 08:56:50;;;;;;;7.93;3.80;;;;;;;24.22;43.19;100725.97;127406;1098;101038;-80
2023/09/09 08:59:25;;;;;;;9.13;3.77;;;;;;;24.29;42.76;100725.87;125565;1098;104264;-80
2023/09/09 09:01:58;;;;;;;7.87;4.00;;;;;;;24.32;42.35;100726.69;127200;1098;104047;-82
2023/09/09 09:04:32;;;;;;;9.05;3.87;;;;;;;24.29;41.87;100733.91;126287;1099;102115;-83
2023/09/09 09:07:02;;;;;;;;;;;;;;;24.27;40.92;100728.58;125519;1099;104297;-79
2023/09/09 09:09:34;;;;;;;9.27;3.90;;;;;;;24.32;42.40;100721.33;125478;1099;104272;-78
2023/09/09 09:12:07;;;;;;;9.77;4.00;;;;;;;24.33;42.67;100720.42;125380;1099;104188;-78
2023/09/09 09:14:47;;;;;;;12.27;4.07;;;;;;;24.27;41.91;100725.02;125347;1099;102065;-79
2023/09/09 09:17:19;;;;;;;9.60;4.10;;;;;;;24.10;42.36;100725.30;125449;1099;101936;-78
2023/09/09 09:19:51;;;;;;;7.23;4.10;;;;;;;24.00;42.24;100730.81;125307;1099;102155;-78
2023/09/09 09:22:23;;;;;;;9.90;4.20;;;;;;;24.02;42.28;100722.75;125228;1099;104194;-79
2023/09/09 09:24:54;;;;;;;8.43;4.50;;;;;;;24.07;42.36;100720.87;125363;1098;102087;-78
2023/09/09 09:27:25;;;;;;;11.80;4.60;;;;;;;24.15;41.97;100726.10;124859;1099;104291;-78
2023/09/09 09:29:57;;;;;;;7.93;4.23;;;;;;;24.21;42.34;100717.95;125100;1099;104658;-78
2023/09/09 09:32:41;;;;;;;8.20;4.50;;;;;;;24.31;41.96;100713.31;125104;1099;104277;-78
2023/09/09 09:35:26;;;;;;;10.40;4.50;;;;;;;24.45;41.87;100731.84;125132;1099;104153;-80
2023/09/09 09:37:58;;;;;;;7.77;3.80;;;;;;;24.50;40.80;100719.25;125150;1099;103257;-78
2023/09/09 09:40:31;;;;;;;6.17;3.83;;;;;;;24.56;41.52;100711.96;124974;1099;101922;-77
2023/09/09 09:43:03;;;;;;;9.87;4.13;;;;;;;24.60;41.05;100710.12;125143;1099;104249;-78
2023/09/09 09:45:34;;;;;;;8.43;4.17;;;;;;;24.68;40.69;100712.67;125215;1099;101887;-80
2023/09/09 09:48:07;;;;;;;9.53;4.20;;;;;;;24.72;40.70;100715.27;125153;1099;101833;-77
2023/09/09 09:50:40;;;;;;;9.70;4.10;;;;;;;24.76;40.22;100708.94;125039;1099;104250;-77
2023/09/09 09:53:11;;;;;;;8.10;4.20;;;;;;;24.81;40.54;100705.25;125178;1099;101849;-79
2023/09/09 09:55:46;;;;;;;10.77;4.30;;;;;;;24.81;38.86;100713.30;125383;1099;101830;-77
2023/09/09 09:58:21;;;;;;;10.13;3.90;;;;;;;24.79;38.75;100713.33;125558;1099;104216;-78
2023/09/09 10:00:54;;;;;;;8.30;4.10;;;;;;;24.86;39.02;100704.26;125502;1099;104172;-78
2023/09/09 10:03:32;;;;;;;11.07;4.17;;;;;;;24.89;38.66;100701.52;125571;1099;104175;-79
2023/09/09 10:06:03;;;;;;;8.33;4.50;;;;;;;24.99;38.67;100704.87;125381;1099;104292;-77
2023/09/09 10:08:42;;;;;;;11.33;4.00;;;;;;;25.05;37.78;100709.25;124882;1099;104245;-78
2023/09/09 10:11:18;;;;;;;9.33;4.27;;;;;;;25.08;37.56;100704.69;125321;1099;101855;-82
2023/09/09 10:13:56;;;;;;;8.10;4.07;;;;;;;25.10;36.12;100708.25;124697;1099;104249;-82
2023/09/09 10:16:29;;;;;;;10.70;4.30;;;;;;;25.14;36.81;100701.00;125241;1099;102087;-81
2023/09/09 10:19:03;;;;;;;8.30;3.98;;;;;;;25.20;36.81;100691.94;125537;1098;104246;-79
2023/09/09 10:21:36;;;;;;;9.60;4.00;;;;;;;25.29;37.57;100694.43;125681;1099;104284;-79
2023/09/09 10:24:09;;;;;;;11.03;3.87;;;;;;;25.32;36.61;100697.05;125763;1099;102038;-78
2023/09/09 10:26:40;;;;;;;9.50;3.95;;;;;;;25.36;36.16;100693.38;125732;1098;104264;-80
2023/09/09 10:29:15;;;;;;;9.07;4.10;;;;;;;25.40;35.42;100699.56;125651;1098;102090;-81
2023/09/09 10:31:47;;;;;;;7.47;3.60;;;;;;;25.44;35.57;100694.09;125593;1099;104162;-81
2023/09/09 10:34:21;;;;;;;11.70;4.43;;;;;;;25.48;35.76;100703.86;125471;1099;104166;-80
2023/09/09 10:36:55;;;;;;;10.37;4.00;;;;;;;25.52;36.21;100693.04;125557;1098;104169;-78
2023/09/09 10:39:28;;;;;;;10.67;4.10;;;;;;;25.52;35.61;100690.35;125860;1099;102265;-83
2023/09/09 10:42:00;;;;;;;8.83;3.83;;;;;;;25.53;35.80;100692.13;126018;1099;104179;-82
2023/09/09 10:44:32;;;;;;;8.08;3.35;;;;;;;25.61;36.35;100693.70;125700;1099;102124;-79
2023/09/09 10:47:08;;;;;;;6.70;3.73;;;;;;;25.63;35.49;100683.81;125847;1098;104228;-79
2023/09/09 10:49:41;;;;;;;5.67;3.00;;;;;;;25.71;35.72;100691.70;125659;1099;102327;-80
2023/09/09 10:52:33;;;;;;;8.70;3.50;;;;;;;25.74;35.19;100694.31;125510;1099;104195;-79
2023/09/09 10:55:14;;;;;;;8.00;3.30;;;;;;;25.79;34.39;100695.08;125564;1099;104728;-78
2023/09/09 10:57:56;;;;;;;7.73;3.07;;;;;;;25.83;34.99;100703.94;125944;1099;107072;-79
2023/09/09 11:00:41;;;;;;;5.80;3.40;;;;;;;25.81;34.51;100695.03;126548;1098;102125;-79
2023/09/09 11:03:15;;;;;;;6.60;3.40;;;;;;;25.77;34.17;100696.92;125555;1099;102026;-79
2023/09/09 11:06:06;;;;;;;7.40;3.75;;;;;;;25.78;33.88;100697.80;125795;1099;102091;-80
2023/09/09 11:08:44;;;;;;;7.10;3.10;;;;;;;25.79;33.64;100695.08;125606;1099;104165;-79
2023/09/09 11:11:17;;;;;;;9.97;3.40;;;;;;;25.83;33.37;100694.06;125451;1099;102019;-80
2023/09/09 11:14:00;;;;;;;5.40;2.90;;;;;;;25.92;33.34;100697.47;124856;1099;101807;-79
2023/09/09 11:16:34;;;;;;;7.03;3.00;;;;;;;25.93;32.54;100700.11;125547;1099;101817;-81
2023/09/09 11:19:07;;;;;;;5.70;3.00;;;;;;;25.94;31.72;100698.30;125494;1099;104271;-81
2023/09/09 11:21:41;;;;;;;7.03;3.00;;;;;;;25.95;32.13;100690.20;124955;1099;104258;-82
2023/09/09 11:24:12;;;;;;;7.30;3.20;;;;;;;26.01;32.02;100699.95;125497;1099;101902;-81
2023/09/09 11:26:45;;;;;;;8.03;3.57;;;;;;;26.04;30.72;100701.66;126189;1098;101990;-80
2023/09/09 11:29:18;;;;;;;6.80;3.40;;;;;;;25.98;30.94;100697.34;125381;1099;104629;-79